Terminal Aerodrome Forecast
Issued by NWS Corpus Christi, TX

Home | Current Version | Previous Version | Text Only | Print | Product List | Glossary On
Versions: 1 2 3 4 5 6 7 8 9 10 11 12 13 14 15
938
FTUS44 KCRP 071739
TAFVCT
TAF
KVCT 071739Z 0718/0818 18008KT P6SM FEW250
     FM080300 VRB04KT P6SM FEW250
     FM081000 34012KT P6SM FEW040 SCT250
     FM081500 01020G30KT P6SM SCT250=

USA.gov is the U.S. government's official web portal to all federal, state and local government web resources and services.